sensor_id;sensor_type;location;lat;lon;timestamp;P1;durP1;ratioP1;P2;durP2;ratioP2
16272;SDS011;8244;50.044;9.006;2022-10-31T00:03:31;17.58;;;9.10;;
16272;SDS011;8244;50.044;9.006;2022-10-31T00:08:34;18.13;;;9.25;;
16272;SDS011;8244;50.044;9.006;2022-10-31T00:13:48;18.50;;;9.32;;
16272;SDS011;8244;50.044;9.006;2022-10-31T00:18:56;18.45;;;8.80;;
16272;SDS011;8244;50.044;9.006;2022-10-31T00:24:01;17.50;;;9.70;;
16272;SDS011;8244;50.044;9.006;2022-10-31T00:29:03;15.48;;;8.68;;
16272;SDS011;8244;50.044;9.006;2022-10-31T00:34:05;12.98;;;7.68;;
16272;SDS011;8244;50.044;9.006;2022-10-31T00:39:08;17.83;;;9.45;;
16272;SDS011;8244;50.044;9.006;2022-10-31T00:44:10;19.63;;;8.77;;
16272;SDS011;8244;50.044;9.006;2022-10-31T00:49:12;15.55;;;8.77;;
16272;SDS011;8244;50.044;9.006;2022-10-31T00:54:15;20.77;;;8.60;;
16272;SDS011;8244;50.044;9.006;2022-10-31T00:59:18;18.98;;;8.48;;
16272;SDS011;8244;50.044;9.006;2022-10-31T01:04:20;18.13;;;8.07;;
16272;SDS011;8244;50.044;9.006;2022-10-31T01:09:24;14.85;;;7.65;;
16272;SDS011;8244;50.044;9.006;2022-10-31T01:14:25;15.80;;;7.85;;
16272;SDS011;8244;50.044;9.006;2022-10-31T01:19:28;13.65;;;7.90;;
16272;SDS011;8244;50.044;9.006;2022-10-31T01:24:31;15.40;;;7.45;;
16272;SDS011;8244;50.044;9.006;2022-10-31T01:29:36;19.65;;;8.18;;
16272;SDS011;8244;50.044;9.006;2022-10-31T01:34:38;12.90;;;7.57;;
16272;SDS011;8244;50.044;9.006;2022-10-31T01:39:41;14.40;;;7.53;;
16272;SDS011;8244;50.044;9.006;2022-10-31T01:44:50;12.73;;;6.40;;
16272;SDS011;8244;50.044;9.006;2022-10-31T01:49:56;14.02;;;6.38;;
16272;SDS011;8244;50.044;9.006;2022-10-31T01:55:07;17.52;;;7.88;;
16272;SDS011;8244;50.044;9.006;2022-10-31T02:00:12;15.20;;;7.20;;
16272;SDS011;8244;50.044;9.006;2022-10-31T02:05:16;12.63;;;7.80;;
16272;SDS011;8244;50.044;9.006;2022-10-31T02:10:22;15.63;;;7.53;;
16272;SDS011;8244;50.044;9.006;2022-10-31T02:15:29;15.52;;;7.97;;
16272;SDS011;8244;50.044;9.006;2022-10-31T02:20:35;12.68;;;7.05;;
16272;SDS011;8244;50.044;9.006;2022-10-31T02:26:05;14.75;;;7.82;;
16272;SDS011;8244;50.044;9.006;2022-10-31T02:31:25;14.50;;;7.40;;
16272;SDS011;8244;50.044;9.006;2022-10-31T02:36:36;14.02;;;7.88;;
16272;SDS011;8244;50.044;9.006;2022-10-31T02:41:46;11.18;;;6.13;;
16272;SDS011;8244;50.044;9.006;2022-10-31T02:46:56;12.40;;;6.40;;
16272;SDS011;8244;50.044;9.006;2022-10-31T02:52:00;12.98;;;6.32;;
16272;SDS011;8244;50.044;9.006;2022-10-31T02:57:03;13.38;;;6.07;;
16272;SDS011;8244;50.044;9.006;2022-10-31T03:02:15;13.35;;;7.00;;
16272;SDS011;8244;50.044;9.006;2022-10-31T03:07:26;13.32;;;6.07;;
16272;SDS011;8244;50.044;9.006;2022-10-31T03:12:37;13.43;;;6.38;;
16272;SDS011;8244;50.044;9.006;2022-10-31T03:17:45;11.68;;;6.72;;
16272;SDS011;8244;50.044;9.006;2022-10-31T03:22:57;13.02;;;6.75;;
16272;SDS011;8244;50.044;9.006;2022-10-31T03:28:01;14.13;;;6.50;;
16272;SDS011;8244;50.044;9.006;2022-10-31T03:33:15;17.42;;;7.07;;
16272;SDS011;8244;50.044;9.006;2022-10-31T03:38:20;15.68;;;8.52;;
16272;SDS011;8244;50.044;9.006;2022-10-31T03:43:24;16.13;;;7.82;;
16272;SDS011;8244;50.044;9.006;2022-10-31T03:48:30;19.02;;;7.75;;
16272;SDS011;8244;50.044;9.006;2022-10-31T03:53:33;14.88;;;7.20;;
16272;SDS011;8244;50.044;9.006;2022-10-31T03:58:40;21.77;;;8.15;;
16272;SDS011;8244;50.044;9.006;2022-10-31T04:03:48;14.75;;;8.05;;
16272;SDS011;8244;50.044;9.006;2022-10-31T04:08:51;20.05;;;8.98;;
16272;SDS011;8244;50.044;9.006;2022-10-31T04:13:57;16.88;;;8.52;;
16272;SDS011;8244;50.044;9.006;2022-10-31T04:19:03;18.30;;;8.65;;
16272;SDS011;8244;50.044;9.006;2022-10-31T04:24:05;17.52;;;8.05;;
16272;SDS011;8244;50.044;9.006;2022-10-31T04:29:07;15.80;;;7.38;;
16272;SDS011;8244;50.044;9.006;2022-10-31T04:34:11;18.27;;;7.85;;
16272;SDS011;8244;50.044;9.006;2022-10-31T04:39:12;14.93;;;7.80;;
16272;SDS011;8244;50.044;9.006;2022-10-31T04:44:14;17.30;;;7.90;;
16272;SDS011;8244;50.044;9.006;2022-10-31T04:49:17;14.95;;;6.75;;
16272;SDS011;8244;50.044;9.006;2022-10-31T04:54:19;14.93;;;6.22;;
16272;SDS011;8244;50.044;9.006;2022-10-31T04:59:21;17.52;;;6.68;;
16272;SDS011;8244;50.044;9.006;2022-10-31T05:04:24;17.13;;;6.53;;
16272;SDS011;8244;50.044;9.006;2022-10-31T05:09:25;15.60;;;6.47;;
16272;SDS011;8244;50.044;9.006;2022-10-31T05:14:35;14.98;;;6.93;;
16272;SDS011;8244;50.044;9.006;2022-10-31T05:19:39;13.90;;;5.75;;
16272;SDS011;8244;50.044;9.006;2022-10-31T05:24:43;17.20;;;6.70;;
16272;SDS011;8244;50.044;9.006;2022-10-31T05:29:45;14.23;;;6.70;;
16272;SDS011;8244;50.044;9.006;2022-10-31T05:34:48;13.43;;;6.93;;
16272;SDS011;8244;50.044;9.006;2022-10-31T05:39:49;18.08;;;6.72;;
16272;SDS011;8244;50.044;9.006;2022-10-31T05:44:51;14.05;;;6.93;;
16272;SDS011;8244;50.044;9.006;2022-10-31T05:49:54;10.77;;;6.15;;
16272;SDS011;8244;50.044;9.006;2022-10-31T05:54:57;16.17;;;7.50;;
16272;SDS011;8244;50.044;9.006;2022-10-31T05:59:59;13.35;;;6.07;;
16272;SDS011;8244;50.044;9.006;2022-10-31T06:05:10;12.57;;;6.47;;
16272;SDS011;8244;50.044;9.006;2022-10-31T06:10:11;18.83;;;6.88;;
16272;SDS011;8244;50.044;9.006;2022-10-31T06:15:14;13.38;;;6.90;;
16272;SDS011;8244;50.044;9.006;2022-10-31T06:20:17;15.25;;;6.05;;
16272;SDS011;8244;50.044;9.006;2022-10-31T06:25:19;11.77;;;6.10;;
16272;SDS011;8244;50.044;9.006;2022-10-31T06:30:21;17.05;;;7.10;;
16272;SDS011;8244;50.044;9.006;2022-10-31T06:35:24;15.73;;;6.80;;
16272;SDS011;8244;50.044;9.006;2022-10-31T06:40:26;15.93;;;7.18;;
16272;SDS011;8244;50.044;9.006;2022-10-31T06:45:28;17.02;;;7.30;;
16272;SDS011;8244;50.044;9.006;2022-10-31T06:50:31;16.08;;;7.72;;
16272;SDS011;8244;50.044;9.006;2022-10-31T06:55:33;19.67;;;7.65;;
16272;SDS011;8244;50.044;9.006;2022-10-31T07:00:35;20.02;;;7.57;;
16272;SDS011;8244;50.044;9.006;2022-10-31T07:05:41;15.45;;;7.82;;
16272;SDS011;8244;50.044;9.006;2022-10-31T07:10:50;19.50;;;8.18;;
16272;SDS011;8244;50.044;9.006;2022-10-31T07:16:03;17.23;;;8.15;;
16272;SDS011;8244;50.044;9.006;2022-10-31T07:21:09;15.50;;;8.55;;
16272;SDS011;8244;50.044;9.006;2022-10-31T07:26:10;17.63;;;8.13;;
16272;SDS011;8244;50.044;9.006;2022-10-31T07:31:12;13.77;;;7.40;;
16272;SDS011;8244;50.044;9.006;2022-10-31T07:36:24;15.90;;;7.78;;
16272;SDS011;8244;50.044;9.006;2022-10-31T07:41:26;15.10;;;7.05;;
16272;SDS011;8244;50.044;9.006;2022-10-31T07:46:27;13.90;;;5.70;;
16272;SDS011;8244;50.044;9.006;2022-10-31T07:51:30;13.25;;;5.10;;
16272;SDS011;8244;50.044;9.006;2022-10-31T07:56:32;12.23;;;4.70;;
16272;SDS011;8244;50.044;9.006;2022-10-31T08:01:34;10.68;;;5.38;;
16272;SDS011;8244;50.044;9.006;2022-10-31T08:06:37;11.02;;;4.70;;
16272;SDS011;8244;50.044;9.006;2022-10-31T08:11:39;13.40;;;4.57;;
16272;SDS011;8244;50.044;9.006;2022-10-31T08:16:40;11.80;;;4.88;;
16272;SDS011;8244;50.044;9.006;2022-10-31T08:21:43;10.80;;;4.97;;
16272;SDS011;8244;50.044;9.006;2022-10-31T08:26:45;9.60;;;4.68;;
16272;SDS011;8244;50.044;9.006;2022-10-31T08:31:47;9.32;;;4.68;;
16272;SDS011;8244;50.044;9.006;2022-10-31T08:36:53;12.85;;;5.18;;
16272;SDS011;8244;50.044;9.006;2022-10-31T08:41:55;12.10;;;6.30;;
16272;SDS011;8244;50.044;9.006;2022-10-31T08:46:57;12.38;;;6.43;;
16272;SDS011;8244;50.044;9.006;2022-10-31T08:52:00;18.15;;;6.70;;
16272;SDS011;8244;50.044;9.006;2022-10-31T08:57:01;16.05;;;6.00;;
16272;SDS011;8244;50.044;9.006;2022-10-31T09:02:04;12.52;;;5.95;;
16272;SDS011;8244;50.044;9.006;2022-10-31T09:07:09;13.80;;;5.78;;
16272;SDS011;8244;50.044;9.006;2022-10-31T09:12:11;12.85;;;5.82;;
16272;SDS011;8244;50.044;9.006;2022-10-31T09:17:13;17.88;;;5.88;;
16272;SDS011;8244;50.044;9.006;2022-10-31T09:22:16;12.40;;;5.40;;
16272;SDS011;8244;50.044;9.006;2022-10-31T09:27:18;12.38;;;5.35;;
16272;SDS011;8244;50.044;9.006;2022-10-31T09:32:19;13.27;;;5.85;;
16272;SDS011;8244;50.044;9.006;2022-10-31T09:37:22;10.70;;;5.40;;
16272;SDS011;8244;50.044;9.006;2022-10-31T09:42:28;15.55;;;5.20;;
16272;SDS011;8244;50.044;9.006;2022-10-31T09:47:43;10.68;;;5.20;;
16272;SDS011;8244;50.044;9.006;2022-10-31T09:53:00;10.85;;;5.00;;
16272;SDS011;8244;50.044;9.006;2022-10-31T09:58:07;10.63;;;5.03;;
16272;SDS011;8244;50.044;9.006;2022-10-31T10:03:17;11.85;;;5.30;;
16272;SDS011;8244;50.044;9.006;2022-10-31T10:08:31;14.52;;;5.25;;
16272;SDS011;8244;50.044;9.006;2022-10-31T10:13:42;10.82;;;4.80;;
16272;SDS011;8244;50.044;9.006;2022-10-31T10:19:21;13.00;;;5.07;;
16272;SDS011;8244;50.044;9.006;2022-10-31T10:24:37;10.68;;;4.75;;
16272;SDS011;8244;50.044;9.006;2022-10-31T10:29:50;16.25;;;5.55;;
16272;SDS011;8244;50.044;9.006;2022-10-31T10:34:59;13.38;;;5.28;;
16272;SDS011;8244;50.044;9.006;2022-10-31T10:40:21;17.88;;;5.18;;
16272;SDS011;8244;50.044;9.006;2022-10-31T10:45:27;10.55;;;5.20;;
16272;SDS011;8244;50.044;9.006;2022-10-31T10:50:47;15.60;;;5.97;;
16272;SDS011;8244;50.044;9.006;2022-10-31T10:55:53;20.23;;;6.47;;
16272;SDS011;8244;50.044;9.006;2022-10-31T11:01:01;18.73;;;5.40;;
16272;SDS011;8244;50.044;9.006;2022-10-31T11:06:17;17.05;;;5.63;;
16272;SDS011;8244;50.044;9.006;2022-10-31T11:11:26;13.55;;;5.60;;
16272;SDS011;8244;50.044;9.006;2022-10-31T11:16:32;14.93;;;5.32;;
16272;SDS011;8244;50.044;9.006;2022-10-31T11:21:36;15.75;;;5.45;;
16272;SDS011;8244;50.044;9.006;2022-10-31T11:26:39;14.95;;;5.45;;
16272;SDS011;8244;50.044;9.006;2022-10-31T11:31:43;16.77;;;5.68;;
16272;SDS011;8244;50.044;9.006;2022-10-31T11:36:47;11.98;;;5.43;;
16272;SDS011;8244;50.044;9.006;2022-10-31T11:41:59;15.00;;;6.45;;
16272;SDS011;8244;50.044;9.006;2022-10-31T11:47:09;11.98;;;5.15;;
16272;SDS011;8244;50.044;9.006;2022-10-31T11:52:23;13.65;;;5.88;;
16272;SDS011;8244;50.044;9.006;2022-10-31T11:57:41;11.40;;;5.15;;
16272;SDS011;8244;50.044;9.006;2022-10-31T12:02:44;12.75;;;5.15;;
16272;SDS011;8244;50.044;9.006;2022-10-31T12:07:46;16.23;;;5.45;;
16272;SDS011;8244;50.044;9.006;2022-10-31T12:12:56;15.10;;;5.78;;
16272;SDS011;8244;50.044;9.006;2022-10-31T12:23:44;15.70;;;5.90;;
16272;SDS011;8244;50.044;9.006;2022-10-31T12:29:05;17.23;;;5.70;;
16272;SDS011;8244;50.044;9.006;2022-10-31T12:34:23;14.70;;;6.00;;
16272;SDS011;8244;50.044;9.006;2022-10-31T12:39:44;17.63;;;6.00;;
16272;SDS011;8244;50.044;9.006;2022-10-31T12:45:07;13.88;;;5.65;;
16272;SDS011;8244;50.044;9.006;2022-10-31T12:50:43;15.30;;;5.38;;
16272;SDS011;8244;50.044;9.006;2022-10-31T12:55:55;15.13;;;5.32;;
16272;SDS011;8244;50.044;9.006;2022-10-31T13:01:09;14.98;;;5.35;;
16272;SDS011;8244;50.044;9.006;2022-10-31T13:06:17;12.88;;;4.95;;
16272;SDS011;8244;50.044;9.006;2022-10-31T13:11:21;16.55;;;5.15;;
16272;SDS011;8244;50.044;9.006;2022-10-31T13:16:30;14.00;;;4.63;;
16272;SDS011;8244;50.044;9.006;2022-10-31T13:21:38;14.45;;;4.85;;
16272;SDS011;8244;50.044;9.006;2022-10-31T13:26:44;12.30;;;4.70;;
16272;SDS011;8244;50.044;9.006;2022-10-31T13:31:51;12.18;;;4.80;;
16272;SDS011;8244;50.044;9.006;2022-10-31T13:36:55;9.20;;;4.68;;
16272;SDS011;8244;50.044;9.006;2022-10-31T13:42:08;13.13;;;5.30;;
16272;SDS011;8244;50.044;9.006;2022-10-31T13:47:25;13.63;;;5.00;;
16272;SDS011;8244;50.044;9.006;2022-10-31T13:52:28;13.45;;;4.80;;
16272;SDS011;8244;50.044;9.006;2022-10-31T13:57:31;14.13;;;4.93;;
16272;SDS011;8244;50.044;9.006;2022-10-31T14:02:43;14.77;;;5.20;;
16272;SDS011;8244;50.044;9.006;2022-10-31T14:07:48;12.60;;;4.68;;
16272;SDS011;8244;50.044;9.006;2022-10-31T14:12:52;18.60;;;5.00;;
16272;SDS011;8244;50.044;9.006;2022-10-31T14:18:05;11.20;;;4.88;;
16272;SDS011;8244;50.044;9.006;2022-10-31T14:28:42;10.98;;;4.72;;
16272;SDS011;8244;50.044;9.006;2022-10-31T14:33:46;13.60;;;5.15;;
16272;SDS011;8244;50.044;9.006;2022-10-31T14:38:50;13.90;;;5.10;;
16272;SDS011;8244;50.044;9.006;2022-10-31T14:44:12;11.52;;;4.50;;
16272;SDS011;8244;50.044;9.006;2022-10-31T14:49:31;9.68;;;4.35;;
16272;SDS011;8244;50.044;9.006;2022-10-31T14:54:42;14.38;;;5.35;;
16272;SDS011;8244;50.044;9.006;2022-10-31T14:59:50;19.55;;;8.20;;
16272;SDS011;8244;50.044;9.006;2022-10-31T15:04:58;11.38;;;5.13;;
16272;SDS011;8244;50.044;9.006;2022-10-31T15:10:03;15.82;;;5.75;;
16272;SDS011;8244;50.044;9.006;2022-10-31T15:15:11;18.05;;;5.40;;
16272;SDS011;8244;50.044;9.006;2022-10-31T15:20:18;11.05;;;5.00;;
16272;SDS011;8244;50.044;9.006;2022-10-31T15:25:34;18.27;;;6.20;;
16272;SDS011;8244;50.044;9.006;2022-10-31T15:30:38;14.40;;;5.80;;
16272;SDS011;8244;50.044;9.006;2022-10-31T15:35:42;19.98;;;6.78;;
16272;SDS011;8244;50.044;9.006;2022-10-31T15:40:57;13.73;;;5.47;;
16272;SDS011;8244;50.044;9.006;2022-10-31T15:46:01;19.13;;;5.72;;
16272;SDS011;8244;50.044;9.006;2022-10-31T15:51:05;16.20;;;6.38;;
16272;SDS011;8244;50.044;9.006;2022-10-31T15:56:07;12.07;;;5.85;;
16272;SDS011;8244;50.044;9.006;2022-10-31T16:01:19;21.42;;;8.52;;
16272;SDS011;8244;50.044;9.006;2022-10-31T16:06:26;15.70;;;7.82;;
16272;SDS011;8244;50.044;9.006;2022-10-31T16:11:31;67.55;;;27.75;;
16272;SDS011;8244;50.044;9.006;2022-10-31T16:16:39;16.40;;;8.13;;
16272;SDS011;8244;50.044;9.006;2022-10-31T16:21:44;14.65;;;8.25;;
16272;SDS011;8244;50.044;9.006;2022-10-31T16:26:48;14.52;;;8.02;;
16272;SDS011;8244;50.044;9.006;2022-10-31T16:31:50;15.02;;;7.13;;
16272;SDS011;8244;50.044;9.006;2022-10-31T16:36:53;16.75;;;7.40;;
16272;SDS011;8244;50.044;9.006;2022-10-31T16:41:55;16.70;;;6.78;;
16272;SDS011;8244;50.044;9.006;2022-10-31T16:47:08;15.75;;;7.28;;
16272;SDS011;8244;50.044;9.006;2022-10-31T16:52:18;16.50;;;7.22;;
16272;SDS011;8244;50.044;9.006;2022-10-31T16:57:28;17.35;;;7.80;;
16272;SDS011;8244;50.044;9.006;2022-10-31T17:02:31;20.15;;;8.25;;
16272;SDS011;8244;50.044;9.006;2022-10-31T17:07:35;15.68;;;8.15;;
16272;SDS011;8244;50.044;9.006;2022-10-31T17:12:37;18.13;;;7.80;;
16272;SDS011;8244;50.044;9.006;2022-10-31T17:17:43;15.23;;;7.47;;
16272;SDS011;8244;50.044;9.006;2022-10-31T17:22:46;16.90;;;9.35;;
16272;SDS011;8244;50.044;9.006;2022-10-31T17:27:49;26.73;;;14.38;;
16272;SDS011;8244;50.044;9.006;2022-10-31T17:32:51;18.88;;;10.00;;
16272;SDS011;8244;50.044;9.006;2022-10-31T17:37:55;14.48;;;7.30;;
16272;SDS011;8244;50.044;9.006;2022-10-31T17:42:58;15.65;;;8.77;;
16272;SDS011;8244;50.044;9.006;2022-10-31T17:48:00;15.52;;;8.70;;
16272;SDS011;8244;50.044;9.006;2022-10-31T17:53:03;20.52;;;8.90;;
16272;SDS011;8244;50.044;9.006;2022-10-31T17:58:08;16.80;;;9.27;;
16272;SDS011;8244;50.044;9.006;2022-10-31T18:03:11;13.32;;;8.45;;
16272;SDS011;8244;50.044;9.006;2022-10-31T18:08:14;15.27;;;8.20;;
16272;SDS011;8244;50.044;9.006;2022-10-31T18:13:16;14.23;;;8.40;;
16272;SDS011;8244;50.044;9.006;2022-10-31T18:18:17;16.92;;;9.30;;
16272;SDS011;8244;50.044;9.006;2022-10-31T18:23:21;19.98;;;9.27;;
16272;SDS011;8244;50.044;9.006;2022-10-31T18:28:22;20.65;;;10.77;;
16272;SDS011;8244;50.044;9.006;2022-10-31T18:33:24;16.50;;;10.43;;
16272;SDS011;8244;50.044;9.006;2022-10-31T18:38:28;19.17;;;11.65;;
16272;SDS011;8244;50.044;9.006;2022-10-31T18:43:30;15.80;;;9.43;;
16272;SDS011;8244;50.044;9.006;2022-10-31T18:48:32;21.50;;;12.25;;
16272;SDS011;8244;50.044;9.006;2022-10-31T18:53:35;23.95;;;13.32;;
16272;SDS011;8244;50.044;9.006;2022-10-31T18:58:38;22.45;;;14.18;;
16272;SDS011;8244;50.044;9.006;2022-10-31T19:03:39;19.98;;;13.50;;
16272;SDS011;8244;50.044;9.006;2022-10-31T19:08:42;19.60;;;12.57;;
16272;SDS011;8244;50.044;9.006;2022-10-31T19:13:44;20.73;;;12.27;;
16272;SDS011;8244;50.044;9.006;2022-10-31T19:18:46;21.13;;;13.23;;
16272;SDS011;8244;50.044;9.006;2022-10-31T19:23:50;21.55;;;14.70;;
16272;SDS011;8244;50.044;9.006;2022-10-31T19:28:53;21.38;;;13.77;;
16272;SDS011;8244;50.044;9.006;2022-10-31T19:33:57;20.88;;;13.50;;
16272;SDS011;8244;50.044;9.006;2022-10-31T19:39:00;20.60;;;12.65;;
16272;SDS011;8244;50.044;9.006;2022-10-31T19:44:08;22.33;;;13.23;;
16272;SDS011;8244;50.044;9.006;2022-10-31T19:49:17;19.75;;;12.45;;
16272;SDS011;8244;50.044;9.006;2022-10-31T19:54:21;18.90;;;11.60;;
16272;SDS011;8244;50.044;9.006;2022-10-31T19:59:23;17.67;;;12.23;;
16272;SDS011;8244;50.044;9.006;2022-10-31T20:04:25;21.92;;;13.05;;
16272;SDS011;8244;50.044;9.006;2022-10-31T20:09:28;20.45;;;12.35;;
16272;SDS011;8244;50.044;9.006;2022-10-31T20:14:30;18.88;;;11.93;;
16272;SDS011;8244;50.044;9.006;2022-10-31T20:19:31;21.20;;;13.07;;
16272;SDS011;8244;50.044;9.006;2022-10-31T20:24:35;22.73;;;12.65;;
16272;SDS011;8244;50.044;9.006;2022-10-31T20:29:36;20.52;;;13.63;;
16272;SDS011;8244;50.044;9.006;2022-10-31T20:34:40;20.33;;;13.52;;
16272;SDS011;8244;50.044;9.006;2022-10-31T20:39:43;19.25;;;11.82;;
16272;SDS011;8244;50.044;9.006;2022-10-31T20:44:55;33.75;;;17.60;;
16272;SDS011;8244;50.044;9.006;2022-10-31T20:49:57;27.48;;;18.65;;
16272;SDS011;8244;50.044;9.006;2022-10-31T20:55:00;32.35;;;19.73;;
16272;SDS011;8244;50.044;9.006;2022-10-31T21:00:02;28.98;;;16.70;;
16272;SDS011;8244;50.044;9.006;2022-10-31T21:05:05;24.30;;;15.63;;
16272;SDS011;8244;50.044;9.006;2022-10-31T21:10:09;22.77;;;14.00;;
16272;SDS011;8244;50.044;9.006;2022-10-31T21:15:14;21.20;;;13.98;;
16272;SDS011;8244;50.044;9.006;2022-10-31T21:20:16;22.08;;;14.57;;
16272;SDS011;8244;50.044;9.006;2022-10-31T21:25:21;25.63;;;14.85;;
16272;SDS011;8244;50.044;9.006;2022-10-31T21:30:24;30.60;;;17.88;;
16272;SDS011;8244;50.044;9.006;2022-10-31T21:35:25;33.55;;;20.40;;
16272;SDS011;8244;50.044;9.006;2022-10-31T21:40:29;24.80;;;16.95;;
16272;SDS011;8244;50.044;9.006;2022-10-31T21:45:31;23.25;;;15.60;;
16272;SDS011;8244;50.044;9.006;2022-10-31T21:50:33;32.75;;;19.02;;
16272;SDS011;8244;50.044;9.006;2022-10-31T21:55:36;27.08;;;17.45;;
16272;SDS011;8244;50.044;9.006;2022-10-31T22:00:38;26.95;;;18.52;;
16272;SDS011;8244;50.044;9.006;2022-10-31T22:05:40;27.17;;;17.67;;
16272;SDS011;8244;50.044;9.006;2022-10-31T22:10:43;25.85;;;16.70;;
16272;SDS011;8244;50.044;9.006;2022-10-31T22:15:45;27.45;;;18.02;;
16272;SDS011;8244;50.044;9.006;2022-10-31T22:20:46;28.33;;;17.23;;
16272;SDS011;8244;50.044;9.006;2022-10-31T22:25:55;27.73;;;18.20;;
16272;SDS011;8244;50.044;9.006;2022-10-31T22:31:02;31.00;;;17.98;;
16272;SDS011;8244;50.044;9.006;2022-10-31T22:36:05;28.02;;;18.73;;
16272;SDS011;8244;50.044;9.006;2022-10-31T22:41:10;27.02;;;17.20;;
16272;SDS011;8244;50.044;9.006;2022-10-31T22:46:14;27.05;;;16.83;;
16272;SDS011;8244;50.044;9.006;2022-10-31T22:51:19;25.60;;;15.35;;
16272;SDS011;8244;50.044;9.006;2022-10-31T22:56:25;24.65;;;15.02;;
16272;SDS011;8244;50.044;9.006;2022-10-31T23:01:28;24.60;;;15.27;;
16272;SDS011;8244;50.044;9.006;2022-10-31T23:06:32;23.65;;;15.95;;
16272;SDS011;8244;50.044;9.006;2022-10-31T23:11:36;23.02;;;16.05;;
16272;SDS011;8244;50.044;9.006;2022-10-31T23:16:43;23.63;;;15.63;;
16272;SDS011;8244;50.044;9.006;2022-10-31T23:21:52;21.55;;;15.48;;
16272;SDS011;8244;50.044;9.006;2022-10-31T23:26:57;24.45;;;16.45;;
16272;SDS011;8244;50.044;9.006;2022-10-31T23:32:08;23.85;;;16.30;;
16272;SDS011;8244;50.044;9.006;2022-10-31T23:37:12;26.92;;;16.60;;
16272;SDS011;8244;50.044;9.006;2022-10-31T23:42:16;27.42;;;16.38;;
16272;SDS011;8244;50.044;9.006;2022-10-31T23:47:19;24.65;;;16.48;;
16272;SDS011;8244;50.044;9.006;2022-10-31T23:52:21;22.17;;;15.55;;
16272;SDS011;8244;50.044;9.006;2022-10-31T23:57:24;27.13;;;15.18;;
